sensor_id;sensor_type;location;lat;lon;timestamp;temperature;humidity
17240;DHT22;9943;54.378;18.604;2022-10-30T00:02:18;12.70;99.90
17240;DHT22;9943;54.378;18.604;2022-10-30T00:04:47;12.70;99.90
17240;DHT22;9943;54.378;18.604;2022-10-30T00:07:28;12.70;99.90
17240;DHT22;9943;54.378;18.604;2022-10-30T00:09:58;12.70;99.90
17240;DHT22;9943;54.378;18.604;2022-10-30T00:12:29;12.70;99.90
17240;DHT22;9943;54.378;18.604;2022-10-30T00:15:01;12.60;99.90
17240;DHT22;9943;54.378;18.604;2022-10-30T00:17:33;12.60;99.90
17240;DHT22;9943;54.378;18.604;2022-10-30T00:20:03;12.60;99.90
17240;DHT22;9943;54.378;18.604;2022-10-30T00:22:36;12.60;99.90
17240;DHT22;9943;54.378;18.604;2022-10-30T00:25:05;12.50;99.90
17240;DHT22;9943;54.378;18.604;2022-10-30T00:27:35;12.50;99.90
17240;DHT22;9943;54.378;18.604;2022-10-30T00:33:11;12.50;99.90
17240;DHT22;9943;54.378;18.604;2022-10-30T00:35:47;12.50;99.90
17240;DHT22;9943;54.378;18.604;2022-10-30T00:38:19;12.50;99.90
17240;DHT22;9943;54.378;18.604;2022-10-30T00:40:48;12.50;99.90
17240;DHT22;9943;54.378;18.604;2022-10-30T00:43:39;12.50;99.90
17240;DHT22;9943;54.378;18.604;2022-10-30T00:46:15;12.50;99.90
17240;DHT22;9943;54.378;18.604;2022-10-30T00:48:53;12.50;99.90
17240;DHT22;9943;54.378;18.604;2022-10-30T00:51:28;12.50;99.90
17240;DHT22;9943;54.378;18.604;2022-10-30T00:54:02;12.50;99.90
17240;DHT22;9943;54.378;18.604;2022-10-30T00:56:39;12.50;99.90
17240;DHT22;9943;54.378;18.604;2022-10-30T00:59:14;12.50;99.90
17240;DHT22;9943;54.378;18.604;2022-10-30T01:01:44;12.50;99.90
17240;DHT22;9943;54.378;18.604;2022-10-30T01:04:16;12.40;99.90
17240;DHT22;9943;54.378;18.604;2022-10-30T01:06:46;12.50;99.90
17240;DHT22;9943;54.378;18.604;2022-10-30T01:09:19;12.40;99.90
17240;DHT22;9943;54.378;18.604;2022-10-30T01:11:49;12.40;99.90
17240;DHT22;9943;54.378;18.604;2022-10-30T01:14:19;12.40;99.90
17240;DHT22;9943;54.378;18.604;2022-10-30T01:17:15;12.40;99.90
17240;DHT22;9943;54.378;18.604;2022-10-30T01:19:58;12.30;99.90
17240;DHT22;9943;54.378;18.604;2022-10-30T01:22:39;12.30;99.90
17240;DHT22;9943;54.378;18.604;2022-10-30T01:25:27;12.30;99.90
17240;DHT22;9943;54.378;18.604;2022-10-30T01:28:11;12.30;99.90
17240;DHT22;9943;54.378;18.604;2022-10-30T01:30:51;12.30;99.90
17240;DHT22;9943;54.378;18.604;2022-10-30T01:33:35;12.30;99.90
17240;DHT22;9943;54.378;18.604;2022-10-30T01:36:10;12.30;99.90
17240;DHT22;9943;54.378;18.604;2022-10-30T01:38:46;12.30;99.90
17240;DHT22;9943;54.378;18.604;2022-10-30T01:41:25;12.30;99.90
17240;DHT22;9943;54.378;18.604;2022-10-30T01:43:57;12.30;99.90
17240;DHT22;9943;54.378;18.604;2022-10-30T01:46:40;12.20;99.90
17240;DHT22;9943;54.378;18.604;2022-10-30T01:49:48;12.20;99.90
17240;DHT22;9943;54.378;18.604;2022-10-30T01:52:25;12.20;99.90
17240;DHT22;9943;54.378;18.604;2022-10-30T01:55:00;12.20;99.90
17240;DHT22;9943;54.378;18.604;2022-10-30T01:57:43;12.10;99.90
17240;DHT22;9943;54.378;18.604;2022-10-30T02:00:17;12.10;99.90
17240;DHT22;9943;54.378;18.604;2022-10-30T02:02:47;12.20;99.90
17240;DHT22;9943;54.378;18.604;2022-10-30T02:05:24;12.10;99.90
17240;DHT22;9943;54.378;18.604;2022-10-30T02:07:54;12.10;99.90
17240;DHT22;9943;54.378;18.604;2022-10-30T02:10:23;12.10;99.90
17240;DHT22;9943;54.378;18.604;2022-10-30T02:12:53;12.10;99.90
17240;DHT22;9943;54.378;18.604;2022-10-30T02:15:22;12.00;99.90
17240;DHT22;9943;54.378;18.604;2022-10-30T02:17:52;12.00;99.90
17240;DHT22;9943;54.378;18.604;2022-10-30T02:20:23;12.00;99.90
17240;DHT22;9943;54.378;18.604;2022-10-30T02:22:53;11.90;99.90
17240;DHT22;9943;54.378;18.604;2022-10-30T02:25:21;11.90;99.90
17240;DHT22;9943;54.378;18.604;2022-10-30T02:27:50;11.80;99.90
17240;DHT22;9943;54.378;18.604;2022-10-30T02:30:19;11.80;99.90
17240;DHT22;9943;54.378;18.604;2022-10-30T02:32:50;11.70;99.90
17240;DHT22;9943;54.378;18.604;2022-10-30T02:35:28;11.70;99.90
17240;DHT22;9943;54.378;18.604;2022-10-30T02:38:03;11.70;99.90
17240;DHT22;9943;54.378;18.604;2022-10-30T02:40:32;11.70;99.90
17240;DHT22;9943;54.378;18.604;2022-10-30T02:43:02;11.60;99.90
17240;DHT22;9943;54.378;18.604;2022-10-30T02:45:34;11.50;99.90
17240;DHT22;9943;54.378;18.604;2022-10-30T02:48:03;11.60;99.90
17240;DHT22;9943;54.378;18.604;2022-10-30T02:50:34;11.50;99.90
17240;DHT22;9943;54.378;18.604;2022-10-30T02:53:06;11.50;99.90
17240;DHT22;9943;54.378;18.604;2022-10-30T02:55:39;11.50;99.90
17240;DHT22;9943;54.378;18.604;2022-10-30T02:58:09;11.50;99.90
17240;DHT22;9943;54.378;18.604;2022-10-30T03:00:53;11.40;99.90
17240;DHT22;9943;54.378;18.604;2022-10-30T03:03:22;11.40;99.90
17240;DHT22;9943;54.378;18.604;2022-10-30T03:05:52;11.30;99.90
17240;DHT22;9943;54.378;18.604;2022-10-30T03:08:21;11.20;99.90
17240;DHT22;9943;54.378;18.604;2022-10-30T03:10:51;11.20;99.90
17240;DHT22;9943;54.378;18.604;2022-10-30T03:13:20;11.10;99.90
17240;DHT22;9943;54.378;18.604;2022-10-30T03:15:48;11.10;99.90
17240;DHT22;9943;54.378;18.604;2022-10-30T03:18:23;11.10;99.90
17240;DHT22;9943;54.378;18.604;2022-10-30T03:20:56;10.80;99.90
17240;DHT22;9943;54.378;18.604;2022-10-30T03:23:25;10.90;99.90
17240;DHT22;9943;54.378;18.604;2022-10-30T03:25:55;10.90;99.90
17240;DHT22;9943;54.378;18.604;2022-10-30T03:28:24;10.90;99.90
17240;DHT22;9943;54.378;18.604;2022-10-30T03:31:01;10.90;99.90
17240;DHT22;9943;54.378;18.604;2022-10-30T03:33:34;10.90;99.90
17240;DHT22;9943;54.378;18.604;2022-10-30T03:36:06;10.90;99.90
17240;DHT22;9943;54.378;18.604;2022-10-30T03:38:37;10.90;99.90
17240;DHT22;9943;54.378;18.604;2022-10-30T03:41:06;10.90;99.90
17240;DHT22;9943;54.378;18.604;2022-10-30T03:43:36;10.80;99.90
17240;DHT22;9943;54.378;18.604;2022-10-30T03:46:08;10.80;99.90
17240;DHT22;9943;54.378;18.604;2022-10-30T03:48:39;10.80;99.90
17240;DHT22;9943;54.378;18.604;2022-10-30T03:51:17;10.80;99.90
17240;DHT22;9943;54.378;18.604;2022-10-30T03:53:47;10.80;99.90
17240;DHT22;9943;54.378;18.604;2022-10-30T03:56:24;10.80;99.90
17240;DHT22;9943;54.378;18.604;2022-10-30T03:58:53;10.70;99.90
17240;DHT22;9943;54.378;18.604;2022-10-30T04:01:25;10.80;99.90
17240;DHT22;9943;54.378;18.604;2022-10-30T04:03:57;10.80;99.90
17240;DHT22;9943;54.378;18.604;2022-10-30T04:06:33;10.80;99.90
17240;DHT22;9943;54.378;18.604;2022-10-30T04:09:03;10.60;99.90
17240;DHT22;9943;54.378;18.604;2022-10-30T04:11:32;10.60;99.90
17240;DHT22;9943;54.378;18.604;2022-10-30T04:14:01;10.60;99.90
17240;DHT22;9943;54.378;18.604;2022-10-30T04:16:31;10.60;99.90
17240;DHT22;9943;54.378;18.604;2022-10-30T04:19:04;10.60;99.90
17240;DHT22;9943;54.378;18.604;2022-10-30T04:21:36;10.50;99.90
17240;DHT22;9943;54.378;18.604;2022-10-30T04:24:05;10.50;99.90
17240;DHT22;9943;54.378;18.604;2022-10-30T04:26:33;10.50;99.90
17240;DHT22;9943;54.378;18.604;2022-10-30T04:29:04;10.50;99.90
17240;DHT22;9943;54.378;18.604;2022-10-30T04:31:35;10.50;99.90
17240;DHT22;9943;54.378;18.604;2022-10-30T04:34:05;10.40;99.90
17240;DHT22;9943;54.378;18.604;2022-10-30T04:36:39;10.40;99.90
17240;DHT22;9943;54.378;18.604;2022-10-30T04:39:12;10.40;99.90
17240;DHT22;9943;54.378;18.604;2022-10-30T04:41:41;10.50;99.90
17240;DHT22;9943;54.378;18.604;2022-10-30T04:44:09;10.60;99.90
17240;DHT22;9943;54.378;18.604;2022-10-30T04:46:38;10.70;99.90
17240;DHT22;9943;54.378;18.604;2022-10-30T04:49:07;10.70;99.90
17240;DHT22;9943;54.378;18.604;2022-10-30T04:51:47;10.70;99.90
17240;DHT22;9943;54.378;18.604;2022-10-30T04:54:22;10.70;99.90
17240;DHT22;9943;54.378;18.604;2022-10-30T04:56:51;10.60;99.90
17240;DHT22;9943;54.378;18.604;2022-10-30T04:59:20;10.50;99.90
17240;DHT22;9943;54.378;18.604;2022-10-30T05:01:50;10.50;99.90
17240;DHT22;9943;54.378;18.604;2022-10-30T05:04:24;10.40;99.90
17240;DHT22;9943;54.378;18.604;2022-10-30T05:06:53;10.40;99.90
17240;DHT22;9943;54.378;18.604;2022-10-30T05:09:23;10.40;99.90
17240;DHT22;9943;54.378;18.604;2022-10-30T05:11:52;10.40;99.90
17240;DHT22;9943;54.378;18.604;2022-10-30T05:14:29;10.40;99.90
17240;DHT22;9943;54.378;18.604;2022-10-30T05:17:02;10.40;99.90
17240;DHT22;9943;54.378;18.604;2022-10-30T05:19:36;10.40;99.90
17240;DHT22;9943;54.378;18.604;2022-10-30T05:22:13;10.50;99.90
17240;DHT22;9943;54.378;18.604;2022-10-30T05:24:43;10.50;99.90
17240;DHT22;9943;54.378;18.604;2022-10-30T05:27:14;10.60;99.90
17240;DHT22;9943;54.378;18.604;2022-10-30T05:29:43;10.70;99.90
17240;DHT22;9943;54.378;18.604;2022-10-30T05:32:17;10.80;99.90
17240;DHT22;9943;54.378;18.604;2022-10-30T05:34:49;10.80;99.90
17240;DHT22;9943;54.378;18.604;2022-10-30T05:37:20;10.80;99.90
17240;DHT22;9943;54.378;18.604;2022-10-30T05:39:51;10.90;99.90
17240;DHT22;9943;54.378;18.604;2022-10-30T05:42:21;10.90;99.90
17240;DHT22;9943;54.378;18.604;2022-10-30T05:44:52;11.00;99.90
17240;DHT22;9943;54.378;18.604;2022-10-30T05:47:21;10.90;99.90
17240;DHT22;9943;54.378;18.604;2022-10-30T05:49:49;11.00;99.90
17240;DHT22;9943;54.378;18.604;2022-10-30T05:52:22;11.10;99.90
17240;DHT22;9943;54.378;18.604;2022-10-30T05:54:51;11.10;99.90
17240;DHT22;9943;54.378;18.604;2022-10-30T05:57:22;11.10;99.90
17240;DHT22;9943;54.378;18.604;2022-10-30T05:59:52;11.20;99.90
17240;DHT22;9943;54.378;18.604;2022-10-30T06:02:21;11.20;99.90
17240;DHT22;9943;54.378;18.604;2022-10-30T06:04:51;11.30;99.90
17240;DHT22;9943;54.378;18.604;2022-10-30T06:07:24;11.50;99.90
17240;DHT22;9943;54.378;18.604;2022-10-30T06:09:52;11.70;99.90
17240;DHT22;9943;54.378;18.604;2022-10-30T06:12:25;11.80;99.90
17240;DHT22;9943;54.378;18.604;2022-10-30T06:15:05;12.20;99.90
17240;DHT22;9943;54.378;18.604;2022-10-30T06:17:36;12.70;99.90
17240;DHT22;9943;54.378;18.604;2022-10-30T06:20:09;13.20;99.90
17240;DHT22;9943;54.378;18.604;2022-10-30T06:22:52;13.30;99.90
17240;DHT22;9943;54.378;18.604;2022-10-30T06:25:22;13.50;99.90
17240;DHT22;9943;54.378;18.604;2022-10-30T06:27:55;13.50;99.90
17240;DHT22;9943;54.378;18.604;2022-10-30T06:30:24;13.90;99.90
17240;DHT22;9943;54.378;18.604;2022-10-30T06:32:57;14.10;99.90
17240;DHT22;9943;54.378;18.604;2022-10-30T06:35:28;13.90;99.90
17240;DHT22;9943;54.378;18.604;2022-10-30T06:37:58;13.50;99.90
17240;DHT22;9943;54.378;18.604;2022-10-30T06:40:29;13.10;99.90
17240;DHT22;9943;54.378;18.604;2022-10-30T06:43:04;12.90;99.90
17240;DHT22;9943;54.378;18.604;2022-10-30T06:45:35;12.70;99.90
17240;DHT22;9943;54.378;18.604;2022-10-30T06:48:08;12.80;99.90
17240;DHT22;9943;54.378;18.604;2022-10-30T06:50:37;12.80;99.90
17240;DHT22;9943;54.378;18.604;2022-10-30T06:53:07;12.70;99.90
17240;DHT22;9943;54.378;18.604;2022-10-30T06:55:38;12.90;99.90
17240;DHT22;9943;54.378;18.604;2022-10-30T06:58:08;13.10;99.90
17240;DHT22;9943;54.378;18.604;2022-10-30T07:00:37;13.00;99.90
17240;DHT22;9943;54.378;18.604;2022-10-30T07:03:07;13.90;99.90
17240;DHT22;9943;54.378;18.604;2022-10-30T07:05:44;12.90;99.90
17240;DHT22;9943;54.378;18.604;2022-10-30T07:08:17;12.80;99.90
17240;DHT22;9943;54.378;18.604;2022-10-30T07:10:48;12.80;99.90
17240;DHT22;9943;54.378;18.604;2022-10-30T07:13:16;12.80;99.90
17240;DHT22;9943;54.378;18.604;2022-10-30T07:15:50;12.80;99.90
17240;DHT22;9943;54.378;18.604;2022-10-30T07:18:20;12.90;99.90
17240;DHT22;9943;54.378;18.604;2022-10-30T07:20:54;13.00;99.90
17240;DHT22;9943;54.378;18.604;2022-10-30T07:23:27;13.00;99.90
17240;DHT22;9943;54.378;18.604;2022-10-30T07:25:58;13.10;99.90
17240;DHT22;9943;54.378;18.604;2022-10-30T07:28:27;13.10;99.90
17240;DHT22;9943;54.378;18.604;2022-10-30T07:30:58;13.10;99.90
17240;DHT22;9943;54.378;18.604;2022-10-30T07:33:36;13.20;99.90
17240;DHT22;9943;54.378;18.604;2022-10-30T07:36:07;13.30;99.90
17240;DHT22;9943;54.378;18.604;2022-10-30T07:38:39;13.40;99.90
17240;DHT22;9943;54.378;18.604;2022-10-30T07:41:12;13.60;99.90
17240;DHT22;9943;54.378;18.604;2022-10-30T07:43:40;13.50;99.90
17240;DHT22;9943;54.378;18.604;2022-10-30T07:46:13;13.60;99.90
17240;DHT22;9943;54.378;18.604;2022-10-30T07:48:44;13.80;99.90
17240;DHT22;9943;54.378;18.604;2022-10-30T07:51:16;13.90;99.90
17240;DHT22;9943;54.378;18.604;2022-10-30T07:53:49;13.90;99.90
17240;DHT22;9943;54.378;18.604;2022-10-30T07:56:21;14.10;99.90
17240;DHT22;9943;54.378;18.604;2022-10-30T07:58:52;14.20;99.90
17240;DHT22;9943;54.378;18.604;2022-10-30T08:01:22;14.40;99.90
17240;DHT22;9943;54.378;18.604;2022-10-30T08:04:01;14.50;99.90
17240;DHT22;9943;54.378;18.604;2022-10-30T08:06:40;14.70;99.90
17240;DHT22;9943;54.378;18.604;2022-10-30T08:09:32;14.60;99.90
17240;DHT22;9943;54.378;18.604;2022-10-30T08:13:01;14.80;99.90
17240;DHT22;9943;54.378;18.604;2022-10-30T08:19:30;15.40;99.90
17240;DHT22;9943;54.378;18.604;2022-10-30T08:22:06;15.90;99.90
17240;DHT22;9943;54.378;18.604;2022-10-30T08:25:22;15.90;99.90
17240;DHT22;9943;54.378;18.604;2022-10-30T08:28:12;16.00;99.90
17240;DHT22;9943;54.378;18.604;2022-10-30T08:30:43;16.50;99.90
17240;DHT22;9943;54.378;18.604;2022-10-30T08:33:17;16.50;99.90
17240;DHT22;9943;54.378;18.604;2022-10-30T08:35:54;16.50;99.90
17240;DHT22;9943;54.378;18.604;2022-10-30T08:38:36;16.20;99.90
17240;DHT22;9943;54.378;18.604;2022-10-30T08:41:19;16.30;99.90
17240;DHT22;9943;54.378;18.604;2022-10-30T08:47:28;16.50;99.90
17240;DHT22;9943;54.378;18.604;2022-10-30T08:50:16;16.50;99.90
17240;DHT22;9943;54.378;18.604;2022-10-30T08:56:28;16.50;99.90
17240;DHT22;9943;54.378;18.604;2022-10-30T08:59:24;16.70;99.90
17240;DHT22;9943;54.378;18.604;2022-10-30T09:02:08;16.70;99.90
17240;DHT22;9943;54.378;18.604;2022-10-30T09:08:30;16.50;99.90
17240;DHT22;9943;54.378;18.604;2022-10-30T09:11:01;17.40;99.90
17240;DHT22;9943;54.378;18.604;2022-10-30T09:13:39;17.70;99.90
17240;DHT22;9943;54.378;18.604;2022-10-30T09:16:08;17.30;99.90
17240;DHT22;9943;54.378;18.604;2022-10-30T09:18:38;17.00;99.90
17240;DHT22;9943;54.378;18.604;2022-10-30T09:21:10;16.90;99.90
17240;DHT22;9943;54.378;18.604;2022-10-30T09:23:42;16.70;99.90
17240;DHT22;9943;54.378;18.604;2022-10-30T09:26:32;16.40;99.90
17240;DHT22;9943;54.378;18.604;2022-10-30T09:29:08;16.30;99.90
17240;DHT22;9943;54.378;18.604;2022-10-30T09:31:49;16.30;99.90
17240;DHT22;9943;54.378;18.604;2022-10-30T09:34:32;16.30;99.90
17240;DHT22;9943;54.378;18.604;2022-10-30T09:37:28;16.20;99.90
17240;DHT22;9943;54.378;18.604;2022-10-30T09:40:20;16.30;99.90
17240;DHT22;9943;54.378;18.604;2022-10-30T09:43:15;16.20;99.90
17240;DHT22;9943;54.378;18.604;2022-10-30T09:50:02;16.40;99.90
17240;DHT22;9943;54.378;18.604;2022-10-30T09:52:49;16.40;99.90
17240;DHT22;9943;54.378;18.604;2022-10-30T09:55:39;16.20;99.90
17240;DHT22;9943;54.378;18.604;2022-10-30T09:58:36;16.10;99.90
17240;DHT22;9943;54.378;18.604;2022-10-30T10:11:32;16.30;99.90
17240;DHT22;9943;54.378;18.604;2022-10-30T10:14:11;16.20;99.90
17240;DHT22;9943;54.378;18.604;2022-10-30T10:16:51;16.00;99.90
17240;DHT22;9943;54.378;18.604;2022-10-30T10:19:32;15.90;99.90
17240;DHT22;9943;54.378;18.604;2022-10-30T10:22:41;15.80;99.90
17240;DHT22;9943;54.378;18.604;2022-10-30T10:25:19;15.70;99.90
17240;DHT22;9943;54.378;18.604;2022-10-30T10:28:02;15.60;99.90
17240;DHT22;9943;54.378;18.604;2022-10-30T10:30:43;15.70;99.90
17240;DHT22;9943;54.378;18.604;2022-10-30T10:33:38;15.70;99.90
17240;DHT22;9943;54.378;18.604;2022-10-30T10:36:22;15.70;99.90
17240;DHT22;9943;54.378;18.604;2022-10-30T10:39:20;15.60;99.90
17240;DHT22;9943;54.378;18.604;2022-10-30T10:42:12;15.70;99.90
17240;DHT22;9943;54.378;18.604;2022-10-30T10:45:14;15.70;99.90
17240;DHT22;9943;54.378;18.604;2022-10-30T10:50:50;15.70;99.90
17240;DHT22;9943;54.378;18.604;2022-10-30T10:53:29;15.60;99.90
17240;DHT22;9943;54.378;18.604;2022-10-30T10:56:00;15.50;99.90
17240;DHT22;9943;54.378;18.604;2022-10-30T11:02:32;15.40;99.90
17240;DHT22;9943;54.378;18.604;2022-10-30T11:05:31;15.30;99.90
17240;DHT22;9943;54.378;18.604;2022-10-30T11:08:38;15.10;99.90
17240;DHT22;9943;54.378;18.604;2022-10-30T11:11:59;15.20;99.90
17240;DHT22;9943;54.378;18.604;2022-10-30T11:21:47;15.20;99.90
17240;DHT22;9943;54.378;18.604;2022-10-30T11:24:40;15.00;99.90
17240;DHT22;9943;54.378;18.604;2022-10-30T11:27:24;15.00;99.90
17240;DHT22;9943;54.378;18.604;2022-10-30T11:30:20;15.10;99.90
17240;DHT22;9943;54.378;18.604;2022-10-30T11:36:21;15.10;99.90
17240;DHT22;9943;54.378;18.604;2022-10-30T11:39:08;15.10;99.90
17240;DHT22;9943;54.378;18.604;2022-10-30T11:41:54;15.10;99.90
17240;DHT22;9943;54.378;18.604;2022-10-30T11:44:33;15.30;99.90
17240;DHT22;9943;54.378;18.604;2022-10-30T11:47:12;15.20;99.90
17240;DHT22;9943;54.378;18.604;2022-10-30T11:49:53;15.00;99.90
17240;DHT22;9943;54.378;18.604;2022-10-30T11:52:48;15.20;99.90
17240;DHT22;9943;54.378;18.604;2022-10-30T11:55:34;15.20;99.90
17240;DHT22;9943;54.378;18.604;2022-10-30T11:58:05;15.20;99.90
17240;DHT22;9943;54.378;18.604;2022-10-30T12:00:45;15.30;99.90
17240;DHT22;9943;54.378;18.604;2022-10-30T12:03:32;15.20;99.90
17240;DHT22;9943;54.378;18.604;2022-10-30T12:06:20;15.30;99.90
17240;DHT22;9943;54.378;18.604;2022-10-30T12:09:00;15.30;99.90
17240;DHT22;9943;54.378;18.604;2022-10-30T12:11:34;15.40;99.90
17240;DHT22;9943;54.378;18.604;2022-10-30T12:14:27;15.40;99.90
17240;DHT22;9943;54.378;18.604;2022-10-30T12:16:58;15.20;99.90
17240;DHT22;9943;54.378;18.604;2022-10-30T12:19:31;15.20;99.90
17240;DHT22;9943;54.378;18.604;2022-10-30T12:22:02;15.10;99.90
17240;DHT22;9943;54.378;18.604;2022-10-30T12:24:39;15.10;99.90
17240;DHT22;9943;54.378;18.604;2022-10-30T12:27:20;14.90;99.90
17240;DHT22;9943;54.378;18.604;2022-10-30T12:30:04;14.90;99.90
17240;DHT22;9943;54.378;18.604;2022-10-30T12:32:45;14.80;99.90
17240;DHT22;9943;54.378;18.604;2022-10-30T12:35:27;14.80;99.90
17240;DHT22;9943;54.378;18.604;2022-10-30T12:38:06;14.90;99.90
17240;DHT22;9943;54.378;18.604;2022-10-30T12:40:59;15.00;99.90
17240;DHT22;9943;54.378;18.604;2022-10-30T12:43:45;15.00;99.90
17240;DHT22;9943;54.378;18.604;2022-10-30T12:46:30;14.90;99.90
17240;DHT22;9943;54.378;18.604;2022-10-30T12:49:14;15.00;99.90
17240;DHT22;9943;54.378;18.604;2022-10-30T12:51:55;15.10;99.90
17240;DHT22;9943;54.378;18.604;2022-10-30T12:54:50;15.00;99.90
17240;DHT22;9943;54.378;18.604;2022-10-30T12:57:34;15.10;99.90
17240;DHT22;9943;54.378;18.604;2022-10-30T13:00:15;15.00;99.90
17240;DHT22;9943;54.378;18.604;2022-10-30T13:03:11;14.90;99.90
17240;DHT22;9943;54.378;18.604;2022-10-30T13:05:48;15.00;99.90
17240;DHT22;9943;54.378;18.604;2022-10-30T13:08:31;14.90;99.90
17240;DHT22;9943;54.378;18.604;2022-10-30T13:11:27;15.00;99.90
17240;DHT22;9943;54.378;18.604;2022-10-30T13:14:20;15.00;99.90
17240;DHT22;9943;54.378;18.604;2022-10-30T13:17:13;14.90;99.90
17240;DHT22;9943;54.378;18.604;2022-10-30T13:19:48;14.80;99.90
17240;DHT22;9943;54.378;18.604;2022-10-30T13:22:46;14.80;99.90
17240;DHT22;9943;54.378;18.604;2022-10-30T13:25:26;14.80;99.90
17240;DHT22;9943;54.378;18.604;2022-10-30T13:28:19;14.80;99.90
17240;DHT22;9943;54.378;18.604;2022-10-30T13:30:59;14.90;99.90
17240;DHT22;9943;54.378;18.604;2022-10-30T13:33:57;14.90;99.90
17240;DHT22;9943;54.378;18.604;2022-10-30T13:40:27;14.80;99.90
17240;DHT22;9943;54.378;18.604;2022-10-30T13:43:16;14.80;99.90
17240;DHT22;9943;54.378;18.604;2022-10-30T13:46:06;14.80;99.90
17240;DHT22;9943;54.378;18.604;2022-10-30T13:51:47;14.70;99.90
17240;DHT22;9943;54.378;18.604;2022-10-30T13:54:44;14.70;99.90
17240;DHT22;9943;54.378;18.604;2022-10-30T13:57:34;14.70;99.90
17240;DHT22;9943;54.378;18.604;2022-10-30T14:00:16;14.80;99.90
17240;DHT22;9943;54.378;18.604;2022-10-30T14:06:32;14.80;99.90
17240;DHT22;9943;54.378;18.604;2022-10-30T14:09:14;14.90;99.90
17240;DHT22;9943;54.378;18.604;2022-10-30T14:11:48;14.60;99.90
17240;DHT22;9943;54.378;18.604;2022-10-30T14:14:28;14.70;99.90
17240;DHT22;9943;54.378;18.604;2022-10-30T14:17:12;14.70;99.90
17240;DHT22;9943;54.378;18.604;2022-10-30T14:20:24;14.70;99.90
17240;DHT22;9943;54.378;18.604;2022-10-30T14:23:24;14.70;99.90
17240;DHT22;9943;54.378;18.604;2022-10-30T14:29:59;14.60;99.90
17240;DHT22;9943;54.378;18.604;2022-10-30T14:32:47;14.60;99.90
17240;DHT22;9943;54.378;18.604;2022-10-30T14:35:33;14.50;99.90
17240;DHT22;9943;54.378;18.604;2022-10-30T14:38:35;14.50;99.90
17240;DHT22;9943;54.378;18.604;2022-10-30T14:41:39;14.50;99.90
17240;DHT22;9943;54.378;18.604;2022-10-30T14:44:42;14.50;99.90
17240;DHT22;9943;54.378;18.604;2022-10-30T14:47:53;14.40;99.90
17240;DHT22;9943;54.378;18.604;2022-10-30T14:50:50;14.40;99.90
17240;DHT22;9943;54.378;18.604;2022-10-30T14:53:46;14.30;99.90
17240;DHT22;9943;54.378;18.604;2022-10-30T14:56:39;14.30;99.90
17240;DHT22;9943;54.378;18.604;2022-10-30T14:59:31;14.20;99.90
17240;DHT22;9943;54.378;18.604;2022-10-30T15:02:32;14.10;99.90
17240;DHT22;9943;54.378;18.604;2022-10-30T15:08:47;14.10;99.90
17240;DHT22;9943;54.378;18.604;2022-10-30T15:11:34;14.10;99.90
17240;DHT22;9943;54.378;18.604;2022-10-30T15:14:17;14.00;99.90
17240;DHT22;9943;54.378;18.604;2022-10-30T15:16:51;14.00;99.90
17240;DHT22;9943;54.378;18.604;2022-10-30T15:19:24;13.90;99.90
17240;DHT22;9943;54.378;18.604;2022-10-30T15:29:23;13.70;99.90
17240;DHT22;9943;54.378;18.604;2022-10-30T15:31:59;13.70;99.90
17240;DHT22;9943;54.378;18.604;2022-10-30T15:34:35;13.60;99.90
17240;DHT22;9943;54.378;18.604;2022-10-30T15:37:15;13.60;99.90
17240;DHT22;9943;54.378;18.604;2022-10-30T15:40:16;13.60;99.90
17240;DHT22;9943;54.378;18.604;2022-10-30T15:42:47;13.60;99.90
17240;DHT22;9943;54.378;18.604;2022-10-30T15:45:51;13.60;99.90
17240;DHT22;9943;54.378;18.604;2022-10-30T15:48:43;13.60;99.90
17240;DHT22;9943;54.378;18.604;2022-10-30T15:51:24;13.50;99.90
17240;DHT22;9943;54.378;18.604;2022-10-30T15:54:04;13.60;99.90
17240;DHT22;9943;54.378;18.604;2022-10-30T15:56:36;13.60;99.90
17240;DHT22;9943;54.378;18.604;2022-10-30T15:59:18;13.50;99.90
17240;DHT22;9943;54.378;18.604;2022-10-30T16:01:56;13.50;99.90
17240;DHT22;9943;54.378;18.604;2022-10-30T16:04:34;13.50;99.90
17240;DHT22;9943;54.378;18.604;2022-10-30T16:07:24;13.40;99.90
17240;DHT22;9943;54.378;18.604;2022-10-30T16:10:03;13.40;99.90
17240;DHT22;9943;54.378;18.604;2022-10-30T16:16:27;13.30;99.90
17240;DHT22;9943;54.378;18.604;2022-10-30T16:23:22;13.30;99.90
17240;DHT22;9943;54.378;18.604;2022-10-30T16:26:24;13.30;99.90
17240;DHT22;9943;54.378;18.604;2022-10-30T16:29:24;13.30;99.90
17240;DHT22;9943;54.378;18.604;2022-10-30T16:32:28;13.30;99.90
17240;DHT22;9943;54.378;18.604;2022-10-30T16:35:01;13.30;99.90
17240;DHT22;9943;54.378;18.604;2022-10-30T16:37:55;13.20;99.90
17240;DHT22;9943;54.378;18.604;2022-10-30T16:40:38;13.20;99.90
17240;DHT22;9943;54.378;18.604;2022-10-30T16:43:24;13.10;99.90
17240;DHT22;9943;54.378;18.604;2022-10-30T16:46:33;13.10;99.90
17240;DHT22;9943;54.378;18.604;2022-10-30T16:49:14;13.10;99.90
17240;DHT22;9943;54.378;18.604;2022-10-30T16:52:05;13.00;99.90
17240;DHT22;9943;54.378;18.604;2022-10-30T16:58:30;12.80;99.90
17240;DHT22;9943;54.378;18.604;2022-10-30T17:01:13;12.80;99.90
17240;DHT22;9943;54.378;18.604;2022-10-30T17:03:59;12.80;99.90
17240;DHT22;9943;54.378;18.604;2022-10-30T17:06:47;12.70;99.90
17240;DHT22;9943;54.378;18.604;2022-10-30T17:09:25;12.60;99.90
17240;DHT22;9943;54.378;18.604;2022-10-30T17:12:20;12.60;99.90
17240;DHT22;9943;54.378;18.604;2022-10-30T17:15:12;12.70;99.90
17240;DHT22;9943;54.378;18.604;2022-10-30T17:17:47;12.70;99.90
17240;DHT22;9943;54.378;18.604;2022-10-30T17:20:40;12.70;99.90
17240;DHT22;9943;54.378;18.604;2022-10-30T17:23:16;12.70;99.90
17240;DHT22;9943;54.378;18.604;2022-10-30T17:25:57;12.60;99.90
17240;DHT22;9943;54.378;18.604;2022-10-30T17:35:56;12.50;99.90
17240;DHT22;9943;54.378;18.604;2022-10-30T17:42:33;12.40;99.90
17240;DHT22;9943;54.378;18.604;2022-10-30T17:45:13;12.20;99.90
17240;DHT22;9943;54.378;18.604;2022-10-30T17:48:19;12.10;99.90
17240;DHT22;9943;54.378;18.604;2022-10-30T17:51:09;12.10;99.90
17240;DHT22;9943;54.378;18.604;2022-10-30T17:54:10;12.00;99.90
17240;DHT22;9943;54.378;18.604;2022-10-30T17:57:00;12.00;99.90
17240;DHT22;9943;54.378;18.604;2022-10-30T17:59:48;11.80;99.90
17240;DHT22;9943;54.378;18.604;2022-10-30T18:02:26;11.80;99.90
17240;DHT22;9943;54.378;18.604;2022-10-30T18:12:25;11.60;99.90
17240;DHT22;9943;54.378;18.604;2022-10-30T18:15:25;11.50;99.90
17240;DHT22;9943;54.378;18.604;2022-10-30T18:21:54;11.40;99.90
17240;DHT22;9943;54.378;18.604;2022-10-30T18:28:45;11.20;99.90
17240;DHT22;9943;54.378;18.604;2022-10-30T18:32:00;11.20;99.90
17240;DHT22;9943;54.378;18.604;2022-10-30T18:35:25;11.20;99.90
17240;DHT22;9943;54.378;18.604;2022-10-30T18:37:55;11.20;99.90
17240;DHT22;9943;54.378;18.604;2022-10-30T18:40:47;11.10;99.90